Time;durP1;ratioP1;P1;durP2;ratioP2;P2;SDS_P1;SDS_P2;PMS_P1;PMS_P2;Temp;Humidity;BMP_temperature;BMP_pressure;BME280_temperature;BME280_humidity;BME280_pressure;Samples;Min_cycle;Max_cycle;Signal;HPM_P1;HPM_P2
2023/09/30 00:00:45;;;;;;;97.82;93.45;;;;;;;18.85;56.58;102407.75;4970506;28;20043;-67
2023/09/30 00:03:11;;;;;;;99.97;95.40;;;;;;;18.84;56.52;102408.81;4973986;28;20086;-67
2023/09/30 00:05:37;;;;;;;102.45;97.75;;;;;;;18.84;56.71;102417.03;4971674;28;20483;-67
2023/09/30 00:08:03;;;;;;;97.80;93.18;;;;;;;18.81;56.86;102412.91;4972997;28;20041;-67
2023/09/30 00:10:30;;;;;;;101.93;96.95;;;;;;;18.81;56.97;102417.56;4972683;28;20041;-68
2023/09/30 00:12:56;;;;;;;102.35;97.70;;;;;;;18.79;56.98;102408.78;4972733;28;20042;-67
2023/09/30 00:15:22;;;;;;;99.53;94.28;;;;;;;18.77;56.94;102408.19;4973144;28;20035;-67
2023/09/30 00:17:47;;;;;;;98.97;94.32;;;;;;;18.76;57.03;102403.81;4973388;28;20034;-68
2023/09/30 00:20:14;;;;;;;98.10;93.65;;;;;;;18.75;56.60;102407.63;4972047;28;20041;-67
2023/09/30 00:22:40;;;;;;;100.22;95.63;;;;;;;18.73;56.65;102388.69;4972584;28;20471;-67
2023/09/30 00:25:06;;;;;;;99.93;95.03;;;;;;;18.72;56.56;102392.53;4972847;28;20045;-67
2023/09/30 00:27:32;;;;;;;99.53;94.78;;;;;;;18.72;56.63;102405.38;4954351;28;20146;-69
2023/09/30 00:29:57;;;;;;;99.05;94.55;;;;;;;18.70;57.02;102419.34;4953456;28;20602;-67
2023/09/30 00:32:23;;;;;;;101.30;96.50;;;;;;;18.68;56.84;102421.50;4954258;28;20047;-67
2023/09/30 00:34:48;;;;;;;98.22;93.72;;;;;;;18.68;56.69;102423.41;4953275;28;20388;-66
2023/09/30 00:37:14;;;;;;;98.30;93.65;;;;;;;18.66;56.73;102431.88;4953876;28;20117;-66
2023/09/30 00:39:39;;;;;;;97.57;92.68;;;;;;;18.65;56.53;102432.09;4953489;28;20043;-66
2023/09/30 00:42:05;;;;;;;97.35;92.95;;;;;;;18.63;57.16;102424.16;4953536;28;20496;-66
2023/09/30 00:44:31;;;;;;;102.55;97.85;;;;;;;18.62;56.64;102417.03;4953895;28;20472;-66
2023/09/30 00:46:56;;;;;;;99.28;94.50;;;;;;;18.60;56.97;102420.03;4953448;28;20450;-65
2023/09/30 00:49:24;;;;;;;95.32;90.93;;;;;;;18.58;56.86;102424.94;4953524;28;20452;-65
2023/09/30 00:51:51;;;;;;;95.63;91.28;;;;;;;18.58;57.04;102430.41;4953529;28;20031;-65
2023/09/30 00:54:18;;;;;;;97.10;92.32;;;;;;;18.56;56.72;102429.81;4953749;28;20036;-66
2023/09/30 00:56:45;;;;;;;97.45;92.90;;;;;;;18.54;57.06;102423.78;4953283;28;20027;-66
2023/09/30 00:59:14;;;;;;;95.82;91.45;;;;;;;18.52;57.05;102420.50;4953778;28;20031;-66
2023/09/30 01:01:44;;;;;;;96.63;91.95;;;;;;;18.52;56.77;102427.84;4953377;28;20031;-66
2023/09/30 01:04:14;;;;;;;96.35;91.80;;;;;;;18.50;57.25;102425.38;4953553;28;20039;-70
2023/09/30 01:06:40;;;;;;;99.78;94.93;;;;;;;18.50;56.83;102430.88;4953182;28;20038;-66
2023/09/30 01:09:07;;;;;;;96.43;91.82;;;;;;;18.49;57.26;102436.56;4953414;28;20031;-66
2023/09/30 01:11:33;;;;;;;95.03;90.45;;;;;;;18.49;56.72;102450.25;4954465;28;20039;-67
2023/09/30 01:13:58;;;;;;;96.93;92.28;;;;;;;18.46;56.82;102467.19;4957161;28;20106;-67
2023/09/30 01:16:24;;;;;;;98.97;94.20;;;;;;;18.45;57.13;102460.06;4956165;28;20039;-67
2023/09/30 01:18:49;;;;;;;99.13;94.43;;;;;;;18.44;56.88;102466.63;4956884;28;20054;-67
2023/09/30 01:21:15;;;;;;;95.03;90.70;;;;;;;18.43;56.77;102470.44;4957293;28;20193;-67
2023/09/30 01:23:41;;;;;;;99.00;94.10;;;;;;;18.40;56.78;102466.31;4956700;28;20043;-68
2023/09/30 01:26:12;;;;;;;99.43;94.63;;;;;;;18.40;57.25;102460.84;4957332;28;20089;-67
2023/09/30 01:28:38;;;;;;;96.20;91.75;;;;;;;18.40;57.45;102460.00;4955601;28;20079;-69
2023/09/30 01:31:04;;;;;;;99.63;94.93;;;;;;;18.37;57.34;102456.69;4957237;28;20031;-67
2023/09/30 01:33:30;;;;;;;95.47;90.55;;;;;;;18.36;56.79;102454.19;4957122;28;20421;-67
2023/09/30 01:35:55;;;;;;;95.82;91.25;;;;;;;18.35;57.31;102447.91;4956992;28;20046;-66
2023/09/30 01:38:21;;;;;;;95.47;90.78;;;;;;;18.34;57.35;102453.63;4957135;28;20027;-67
2023/09/30 01:40:47;;;;;;;96.13;91.63;;;;;;;18.33;57.28;102450.06;4956770;28;20035;-65
2023/09/30 01:43:13;;;;;;;95.68;91.07;;;;;;;18.32;57.03;102451.16;4956975;28;20035;-66
2023/09/30 01:45:40;;;;;;;93.15;88.65;;;;;;;18.31;56.97;102448.66;4956740;28;20035;-70
2023/09/30 01:48:06;;;;;;;97.97;93.32;;;;;;;18.29;56.87;102448.09;4956884;28;20039;-68
2023/09/30 01:50:31;;;;;;;92.90;88.60;;;;;;;18.27;56.96;102451.09;4956823;28;20435;-66
2023/09/30 01:52:57;;;;;;;97.53;92.78;;;;;;;18.27;57.17;102442.03;4956436;28;20376;-66
2023/09/30 01:55:22;;;;;;;91.50;87.25;;;;;;;18.26;57.41;102448.59;4956804;28;20046;-66
2023/09/30 01:57:48;;;;;;;93.57;89.20;;;;;;;18.24;56.95;102446.09;4956199;28;20530;-66
2023/09/30 02:00:13;;;;;;;93.10;88.80;;;;;;;18.22;57.28;102440.09;4956792;28;20050;-66
2023/09/30 02:02:39;;;;;;;92.18;87.78;;;;;;;18.21;56.75;102440.31;4956208;28;20035;-66
2023/09/30 02:05:07;;;;;;;93.00;88.55;;;;;;;18.20;57.27;102453.19;4956264;28;20154;-66
2023/09/30 02:07:34;;;;;;;93.65;89.20;;;;;;;18.19;57.35;102459.72;4975178;28;20050;-66
2023/09/30 02:09:59;;;;;;;92.50;88.07;;;;;;;18.18;57.44;102455.31;4974897;28;20031;-68
2023/09/30 02:12:27;;;;;;;95.55;90.85;;;;;;;18.17;57.48;102457.25;4975404;28;20491;-65
2023/09/30 02:14:53;;;;;;;94.28;89.78;;;;;;;18.16;57.28;102452.84;4974755;28;20082;-65
2023/09/30 02:17:18;;;;;;;91.95;87.30;;;;;;;18.15;57.10;102456.66;4974602;28;20038;-66
2023/09/30 02:19:44;;;;;;;93.68;88.88;;;;;;;18.14;57.18;102457.75;4974745;28;20066;-70
2023/09/30 02:22:09;;;;;;;90.65;86.53;;;;;;;18.13;57.22;102458.00;4973782;28;20399;-67
2023/09/30 02:24:35;;;;;;;90.43;86.18;;;;;;;18.13;57.18;102450.63;4975271;28;20395;-65
2023/09/30 02:27:00;;;;;;;93.30;88.90;;;;;;;18.12;57.35;102446.22;4974169;28;20114;-66
2023/09/30 02:29:25;;;;;;;93.18;88.88;;;;;;;18.10;56.98;102453.84;4975637;28;20093;-66
2023/09/30 02:31:51;;;;;;;94.88;90.22;;;;;;;18.09;57.62;102456.81;4974779;28;20041;-66
2023/09/30 02:34:17;;;;;;;90.45;86.15;;;;;;;18.08;57.42;102464.22;4973068;28;20479;-66
2023/09/30 02:36:42;;;;;;;94.35;89.95;;;;;;;18.07;57.11;102459.00;4974686;28;20058;-66
2023/09/30 02:39:10;;;;;;;92.60;88.20;;;;;;;18.05;57.30;102447.50;4974630;28;20027;-68
2023/09/30 02:41:37;;;;;;;94.72;90.20;;;;;;;18.04;57.10;102435.72;4975055;28;20122;-66
2023/09/30 02:44:03;;;;;;;93.78;89.07;;;;;;;18.03;57.39;102439.53;4973363;28;20045;-65
2023/09/30 02:46:28;;;;;;;93.32;88.85;;;;;;;18.02;57.48;102439.81;4974650;28;20467;-67
2023/09/30 02:48:54;;;;;;;94.43;89.45;;;;;;;18.01;56.99;102440.84;4974141;28;20034;-70
2023/09/30 02:51:19;;;;;;;89.55;84.97;;;;;;;18.01;57.37;102440.84;4974900;28;20039;-67
2023/09/30 02:53:46;;;;;;;88.43;84.13;;;;;;;17.99;57.52;102443.00;4970387;28;20046;-67
2023/09/30 02:56:11;;;;;;;90.90;86.20;;;;;;;17.97;57.06;102448.75;4954998;28;20040;-67
2023/09/30 02:58:38;;;;;;;87.65;83.25;;;;;;;17.97;57.61;102445.16;4956078;28;20134;-68
2023/09/30 03:01:03;;;;;;;89.38;84.88;;;;;;;17.95;57.06;102449.00;4955292;28;20475;-66
2023/09/30 03:03:30;;;;;;;86.85;82.47;;;;;;;17.95;57.17;102450.91;4955461;28;20035;-65
2023/09/30 03:05:57;;;;;;;86.65;82.18;;;;;;;17.94;57.33;102451.97;4955240;28;20514;-65
2023/09/30 03:08:23;;;;;;;87.18;83.07;;;;;;;17.93;57.22;102453.06;4955274;28;20023;-65
2023/09/30 03:10:49;;;;;;;86.63;82.28;;;;;;;17.91;57.19;102450.56;4955497;28;20066;-65
2023/09/30 03:13:14;;;;;;;87.88;83.47;;;;;;;17.91;57.26;102452.47;4954978;28;20463;-65
2023/09/30 03:15:40;;;;;;;87.80;83.65;;;;;;;17.89;57.57;102449.16;4955385;28;20090;-65
2023/09/30 03:18:05;;;;;;;89.50;85.10;;;;;;;17.89;57.63;102438.22;4954510;28;20030;-65
2023/09/30 03:20:31;;;;;;;88.97;84.78;;;;;;;17.88;57.23;102431.09;4955221;28;20329;-67
2023/09/30 03:22:56;;;;;;;90.25;85.88;;;;;;;17.86;57.20;102425.06;4954507;28;20395;-67
2023/09/30 03:25:22;;;;;;;87.05;82.85;;;;;;;17.85;57.11;102420.69;4973033;28;20130;-67
2023/09/30 03:27:48;;;;;;;85.18;81.13;;;;;;;17.84;57.19;102427.19;4973931;28;20027;-67
2023/09/30 03:30:15;;;;;;;90.43;85.72;;;;;;;17.83;57.03;102429.13;4973389;28;20439;-66
2023/09/30 03:32:41;;;;;;;85.55;81.55;;;;;;;17.82;57.63;102432.13;4973117;28;20471;-67
2023/09/30 03:35:18;;;;;;;87.07;82.85;;;;;;;17.82;57.55;102437.59;4972954;28;20391;-67
2023/09/30 03:37:44;;;;;;;88.80;84.30;;;;;;;17.80;57.64;102447.94;4955309;28;20031;-66
2023/09/30 03:40:33;;;;;;;83.75;79.45;;;;;;;17.78;57.37;102448.16;4954478;28;20074;-66
2023/09/30 03:42:59;;;;;;;82.80;78.95;;;;;;;17.77;57.14;102442.94;4954343;28;20112;-67
2023/09/30 03:45:24;;;;;;;86.03;81.72;;;;;;;17.76;57.64;102438.53;4954006;28;20039;-67
2023/09/30 03:47:51;;;;;;;84.35;80.40;;;;;;;17.75;57.44;102434.97;4954599;28;20110;-66
2023/09/30 03:50:17;;;;;;;83.82;79.97;;;;;;;17.74;57.19;102430.59;4954283;28;20031;-65
2023/09/30 03:52:44;;;;;;;86.43;82.28;;;;;;;17.72;57.56;102432.75;4954455;28;20384;-65
2023/09/30 03:55:14;;;;;;;88.90;84.32;;;;;;;17.72;57.64;102436.31;4954068;28;20035;-65
2023/09/30 03:57:39;;;;;;;84.95;80.93;;;;;;;17.70;57.52;102427.53;4954378;28;20505;-64
2023/09/30 04:00:06;;;;;;;88.05;83.47;;;;;;;17.69;57.19;102428.63;4953792;28;20031;-66
2023/09/30 04:02:32;;;;;;;86.32;82.03;;;;;;;17.68;57.25;102428.84;4954185;28;20050;-66
2023/09/30 04:04:59;;;;;;;84.35;80.13;;;;;;;17.67;57.19;102436.22;4952924;28;20047;-66
2023/09/30 04:07:27;;;;;;;87.40;83.03;;;;;;;17.67;57.61;102435.41;4954563;28;20050;-66
2023/09/30 04:09:55;;;;;;;86.70;82.55;;;;;;;17.65;57.69;102432.91;4973717;28;20038;-66
2023/09/30 04:12:23;;;;;;;84.10;80.00;;;;;;;17.64;57.57;102436.72;4972807;28;20476;-66
2023/09/30 04:14:49;;;;;;;86.00;81.97;;;;;;;17.64;57.62;102427.69;4972791;28;20177;-66
2023/09/30 04:17:14;;;;;;;84.03;79.72;;;;;;;17.63;57.70;102426.03;4972476;28;20035;-66
2023/09/30 04:19:40;;;;;;;80.53;76.85;;;;;;;17.62;57.60;102429.88;4972319;28;20043;-67
2023/09/30 04:22:05;;;;;;;83.45;79.32;;;;;;;17.60;57.65;102424.63;4972774;28;20501;-67
2023/09/30 04:24:30;;;;;;;86.28;81.85;;;;;;;17.59;57.28;102412.06;4973046;28;20043;-67
2023/09/30 04:27:02;;;;;;;82.20;78.13;;;;;;;17.58;57.66;102420.50;4968497;28;20040;-67
2023/09/30 04:29:27;;;;;;;81.43;77.32;;;;;;;17.57;57.28;102427.06;4954097;28;20031;-66
2023/09/30 04:31:54;;;;;;;81.82;77.53;;;;;;;17.55;57.24;102429.19;4953807;28;20042;-66
2023/09/30 04:34:19;;;;;;;83.82;79.72;;;;;;;17.55;57.79;102438.22;4953929;28;20050;-66
2023/09/30 04:36:45;;;;;;;82.18;78.18;;;;;;;17.54;57.21;102433.84;4953621;28;20043;-67
2023/09/30 04:39:12;;;;;;;84.78;80.47;;;;;;;17.53;57.68;102423.97;4953441;28;20099;-66
2023/09/30 04:41:41;;;;;;;82.30;78.13;;;;;;;17.52;57.25;102436.81;4953761;28;20122;-66
2023/09/30 04:44:06;;;;;;;82.97;78.85;;;;;;;17.50;57.21;102438.94;4953185;28;20538;-66
2023/09/30 04:46:32;;;;;;;85.57;81.30;;;;;;;17.50;57.51;102441.69;4971121;28;20039;-66
2023/09/30 04:48:57;;;;;;;81.15;77.28;;;;;;;17.49;57.60;102440.03;4971525;28;20035;-68
2023/09/30 04:51:25;;;;;;;84.50;79.93;;;;;;;17.48;57.57;102449.28;4972078;28;20079;-65
2023/09/30 04:53:50;;;;;;;79.30;75.50;;;;;;;17.47;57.74;102458.59;4972661;28;20066;-65
2023/09/30 04:56:16;;;;;;;83.55;79.43;;;;;;;17.46;57.73;102451.47;4971377;28;20185;-66
2023/09/30 04:58:41;;;;;;;79.38;75.63;;;;;;;17.44;57.63;102453.63;4972290;28;20034;-68
2023/09/30 05:01:08;;;;;;;84.45;79.93;;;;;;;17.44;57.23;102450.06;4972216;28;20114;-66
2023/09/30 05:03:34;;;;;;;79.75;75.63;;;;;;;17.43;57.36;102440.19;4971812;28;20051;-66
2023/09/30 05:06:00;;;;;;;83.18;79.28;;;;;;;17.43;57.24;102451.13;4972319;28;20141;-66
2023/09/30 05:08:25;;;;;;;85.22;80.05;;;;;;;17.41;57.32;102451.38;4971432;28;20489;-66
2023/09/30 05:10:55;;;;;;;81.55;77.25;;;;;;;17.41;57.25;102454.13;4972559;28;20065;-66
2023/09/30 05:13:20;;;;;;;81.20;77.20;;;;;;;17.40;57.67;102452.44;4971647;28;20043;-66
2023/09/30 05:15:46;;;;;;;81.57;77.65;;;;;;;17.39;57.68;102452.72;4967805;28;20035;-66
2023/09/30 05:18:11;;;;;;;81.63;77.70;;;;;;;17.39;57.70;102458.16;4952914;28;20123;-66
2023/09/30 05:20:38;;;;;;;85.00;79.55;;;;;;;17.38;57.29;102464.69;4953523;28;20033;-65
2023/09/30 05:23:06;;;;;;;83.97;80.00;;;;;;;17.36;57.78;102466.84;4953417;28;20074;-65
2023/09/30 05:25:31;;;;;;;79.68;75.65;;;;;;;17.36;57.28;102461.38;4952847;28;20031;-65
2023/09/30 05:27:56;;;;;;;80.07;76.28;;;;;;;17.35;57.62;102457.81;4953193;28;20210;-68
2023/09/30 05:30:22;;;;;;;84.78;80.40;;;;;;;17.35;57.83;102460.56;4951857;28;20452;-67
2023/09/30 05:32:47;;;;;;;83.65;79.05;;;;;;;17.32;57.83;102458.31;4953017;28;20112;-67
2023/09/30 05:35:13;;;;;;;81.88;78.00;;;;;;;17.30;57.74;102464.00;4953141;28;20057;-67
2023/09/30 05:37:43;;;;;;;81.05;76.97;;;;;;;17.31;57.80;102470.28;4953459;28;20375;-66
2023/09/30 05:40:20;;;;;;;79.57;75.60;;;;;;;17.29;57.25;102462.38;4953406;28;20038;-66
2023/09/30 05:42:45;;;;;;;81.28;77.25;;;;;;;17.28;57.30;102468.88;4952803;28;20472;-67
2023/09/30 05:45:14;;;;;;;82.82;78.72;;;;;;;17.28;57.47;102468.06;4953183;28;20038;-67
2023/09/30 05:47:40;;;;;;;80.35;76.25;;;;;;;17.26;57.66;102473.78;4953251;28;20039;-66
2023/09/30 05:50:07;;;;;;;83.25;78.85;;;;;;;17.25;57.45;102474.84;4952925;28;20423;-66
2023/09/30 05:52:32;;;;;;;83.30;78.68;;;;;;;17.24;57.32;102486.03;4952542;28;20035;-66
2023/09/30 05:54:57;;;;;;;82.97;78.78;;;;;;;17.23;57.40;102485.19;4957520;28;20143;-66
2023/09/30 05:57:23;;;;;;;81.78;77.78;;;;;;;17.22;57.88;102486.28;4972111;28;20045;-65
2023/09/30 05:59:49;;;;;;;81.53;77.22;;;;;;;17.22;57.94;102493.63;4975455;28;20109;-65
2023/09/30 06:02:15;;;;;;;80.18;76.25;;;;;;;17.20;57.92;102491.13;4975224;28;20155;-68
2023/09/30 06:04:40;;;;;;;81.35;77.40;;;;;;;17.20;57.42;102485.69;4975727;28;20038;-66
2023/09/30 06:07:06;;;;;;;82.32;78.13;;;;;;;17.19;57.35;102494.97;4974868;28;20067;-66
2023/09/30 06:09:31;;;;;;;79.95;75.13;;;;;;;17.19;57.50;102488.66;4974816;28;20026;-67
2023/09/30 06:11:57;;;;;;;82.50;78.60;;;;;;;17.17;57.35;102488.91;4975146;28;20042;-67
2023/09/30 06:14:22;;;;;;;81.80;77.38;;;;;;;17.17;57.49;102482.63;4974812;28;20031;-67
2023/09/30 06:16:47;;;;;;;80.82;76.72;;;;;;;17.16;57.35;102484.53;4975389;28;20487;-66
2023/09/30 06:19:13;;;;;;;80.55;76.70;;;;;;;17.16;57.33;102478.22;4974690;28;20031;-67
2023/09/30 06:21:39;;;;;;;81.45;77.30;;;;;;;17.15;57.61;102471.09;4974764;28;20427;-68
2023/09/30 06:24:05;;;;;;;79.65;75.85;;;;;;;17.14;57.63;102483.13;4973678;28;20035;-68
2023/09/30 06:26:30;;;;;;;80.43;76.43;;;;;;;17.13;57.94;102487.72;4974788;28;20118;-68
2023/09/30 06:28:56;;;;;;;81.88;77.47;;;;;;;17.13;57.77;102484.16;4974934;28;20035;-68
2023/09/30 06:31:23;;;;;;;81.57;77.60;;;;;;;17.11;57.66;102483.59;4974559;28;20035;-67
2023/09/30 06:33:48;;;;;;;81.88;77.78;;;;;;;17.11;57.79;102483.59;4974988;28;20045;-67
2023/09/30 06:36:14;;;;;;;79.43;75.63;;;;;;;17.10;57.31;102485.50;4974163;28;20058;-69
2023/09/30 06:38:41;;;;;;;78.50;74.47;;;;;;;17.10;57.38;102490.94;4974447;28;20134;-66
2023/09/30 06:41:07;;;;;;;77.03;73.32;;;;;;;17.09;57.38;102497.50;4974922;28;20089;-67
2023/09/30 06:43:35;;;;;;;78.47;74.47;;;;;;;17.08;57.78;102501.28;4974511;28;20035;-66
2023/09/30 06:46:07;;;;;;;79.57;75.50;;;;;;;17.07;57.79;102497.72;4974212;28;20085;-66
2023/09/30 06:48:32;;;;;;;83.07;78.80;;;;;;;17.06;57.72;102500.72;4974118;28;20542;-66
2023/09/30 06:50:59;;;;;;;79.68;75.50;;;;;;;17.05;57.85;102513.50;4974151;28;20035;-66
2023/09/30 06:53:24;;;;;;;82.80;78.63;;;;;;;17.05;57.93;102529.06;4974529;28;20085;-68
2023/09/30 06:55:51;;;;;;;81.20;76.90;;;;;;;17.03;57.71;102533.94;4974540;28;20038;-67
2023/09/30 06:58:20;;;;;;;80.47;76.53;;;;;;;17.03;57.49;102533.94;4974078;28;20035;-67
2023/09/30 07:00:53;;;;;;;78.50;74.55;;;;;;;17.01;57.77;102536.94;4973975;28;20046;-67
2023/09/30 07:03:22;;;;;;;82.20;77.70;;;;;;;17.01;57.82;102542.41;4973747;28;20023;-69
2023/09/30 07:05:49;;;;;;;;;;;;;;;17.01;57.62;102536.06;4955259;28;20138;-65
2023/09/30 07:08:18;;;;;;;80.63;76.23;;;;;;;16.98;57.94;102536.56;4955409;28;20017;-67
2023/09/30 07:10:46;;;;;;;77.18;73.40;;;;;;;16.97;57.59;102541.22;4972080;28;20501;-68
2023/09/30 07:13:11;;;;;;;79.63;75.43;;;;;;;16.96;57.62;102536.84;4974295;28;20039;-67
2023/09/30 07:15:37;;;;;;;79.72;75.68;;;;;;;16.96;57.81;102545.03;4973239;28;20035;-68
2023/09/30 07:18:03;;;;;;;75.03;71.18;;;;;;;16.97;57.99;102560.31;4974116;28;20035;-67
2023/09/30 07:20:32;;;;;;;79.18;75.28;;;;;;;16.97;57.41;102567.69;4973506;28;20046;-68
2023/09/30 07:22:58;;;;;;;78.65;74.28;;;;;;;16.95;57.99;102567.09;4968957;28;20464;-68
2023/09/30 07:25:24;;;;;;;78.32;74.53;;;;;;;16.97;57.93;102578.59;4954977;28;20454;-66
2023/09/30 07:27:50;;;;;;;80.38;75.97;;;;;;;16.96;57.94;102577.78;4954566;28;20139;-65
2023/09/30 07:30:15;;;;;;;82.97;78.38;;;;;;;16.96;57.88;102583.25;4953761;28;20046;-66
2023/09/30 07:32:42;;;;;;;80.72;76.22;;;;;;;16.94;57.79;102577.19;4954538;28;20043;-66
2023/09/30 07:35:08;;;;;;;83.80;79.18;;;;;;;16.95;58.01;102581.56;4972317;28;20374;-66
2023/09/30 07:37:33;;;;;;;83.93;79.70;;;;;;;16.94;57.60;102579.91;4973208;28;20081;-67
2023/09/30 07:39:59;;;;;;;83.38;78.82;;;;;;;16.94;57.55;102579.09;4973822;28;20495;-67
2023/09/30 07:42:25;;;;;;;79.60;75.22;;;;;;;16.96;57.50;102585.13;4973730;28;20031;-66
2023/09/30 07:44:50;;;;;;;82.07;77.35;;;;;;;16.95;57.46;102581.56;4973278;28;20534;-66
2023/09/30 07:47:16;;;;;;;82.82;78.82;;;;;;;16.94;57.97;102577.19;4973264;28;20062;-68
2023/09/30 07:49:41;;;;;;;83.20;78.95;;;;;;;16.94;57.53;102576.38;4972031;28;20038;-69
2023/09/30 07:52:06;;;;;;;78.75;74.60;;;;;;;16.94;58.00;102579.09;4956333;28;20494;-68
2023/09/30 07:54:32;;;;;;;84.65;79.85;;;;;;;16.95;57.83;102575.28;4971192;28;20149;-68
2023/09/30 07:56:58;;;;;;;80.65;75.65;;;;;;;16.94;57.89;102582.63;4972870;28;20035;-69
2023/09/30 07:59:24;;;;;;;85.18;80.13;;;;;;;16.94;57.67;102582.63;4973458;28;20035;-68
2023/09/30 08:01:49;;;;;;;83.07;78.00;;;;;;;16.94;57.70;102582.63;4971635;28;20122;-67
2023/09/30 08:04:15;;;;;;;85.65;80.95;;;;;;;16.96;57.61;102583.25;4973049;28;20487;-67
2023/09/30 08:06:40;;;;;;;83.75;79.32;;;;;;;16.96;57.89;102585.97;4972255;28;20090;-70
2023/09/30 08:09:11;;;;;;;79.82;75.60;;;;;;;16.96;57.66;102583.25;4971987;28;20047;-67
2023/09/30 08:11:37;;;;;;;82.90;77.53;;;;;;;16.97;57.59;102579.44;4972665;28;20049;-67
2023/09/30 08:14:06;;;;;;;80.70;76.38;;;;;;;16.96;57.72;102575.03;4971069;28;20038;-66
2023/09/30 08:16:33;;;;;;;79.53;75.43;;;;;;;16.97;57.61;102567.69;4972285;28;20057;-66
2023/09/30 08:18:58;;;;;;;85.93;80.80;;;;;;;16.96;57.50;102568.72;4972732;28;20030;-68
2023/09/30 08:21:24;;;;;;;84.38;79.35;;;;;;;16.97;57.90;102567.69;4972028;28;20463;-67
2023/09/30 08:23:49;;;;;;;82.07;77.22;;;;;;;16.96;57.88;102569.59;4967893;28;20490;-71
2023/09/30 08:26:14;;;;;;;81.53;76.80;;;;;;;16.97;58.00;102565.78;4954237;28;20035;-68
2023/09/30 08:28:40;;;;;;;83.30;78.85;;;;;;;16.98;58.21;102563.88;4953579;28;20036;-67
2023/09/30 08:31:05;;;;;;;85.90;80.10;;;;;;;16.97;57.80;102563.03;4954097;28;20115;-68
2023/09/30 08:33:35;;;;;;;81.93;77.10;;;;;;;16.97;57.62;102557.59;4953451;28;20050;-68
2023/09/30 08:36:07;;;;;;;84.97;79.60;;;;;;;16.98;58.04;102555.69;4954244;28;20037;-67
2023/09/30 08:38:37;;;;;;;80.55;75.68;;;;;;;17.00;57.69;102559.00;4971647;28;20085;-69
2023/09/30 08:41:02;;;;;;;88.80;83.03;;;;;;;17.00;58.04;102554.38;4972990;28;20113;-66
2023/09/30 08:43:30;;;;;;;86.15;80.68;;;;;;;17.01;57.61;102555.19;4972535;28;20387;-68
2023/09/30 08:45:56;;;;;;;86.63;80.93;;;;;;;17.02;58.21;102543.22;4972359;28;20082;-68
2023/09/30 08:48:23;;;;;;;82.55;77.15;;;;;;;17.03;58.05;102556.63;4972590;28;20074;-68
2023/09/30 08:50:52;;;;;;;85.18;80.03;;;;;;;17.05;57.79;102550.91;4972226;28;20039;-68
2023/09/30 08:53:19;;;;;;;82.57;77.60;;;;;;;17.03;58.17;102553.91;4972480;28;20027;-67
2023/09/30 08:55:46;;;;;;;87.93;82.55;;;;;;;17.04;58.19;102555.56;4971956;28;20054;-67
2023/09/30 08:58:12;;;;;;;88.50;82.28;;;;;;;17.05;58.28;102570.84;4972447;28;20056;-68
2023/09/30 09:00:38;;;;;;;87.00;81.07;;;;;;;17.07;58.06;102574.19;4972361;28;20030;-70
2023/09/30 09:03:06;;;;;;;86.40;80.88;;;;;;;17.08;58.19;102588.66;4972739;28;20027;-68
2023/09/30 09:05:31;;;;;;;87.97;81.82;;;;;;;17.10;57.98;102586.50;4972421;28;20048;-70
2023/09/30 09:07:57;;;;;;;92.30;85.40;;;;;;;17.11;58.23;102585.47;4972134;28;20038;-68
2023/09/30 09:10:22;;;;;;;86.30;80.72;;;;;;;17.13;58.05;102587.94;4972645;28;20035;-69
2023/09/30 09:12:56;;;;;;;88.95;82.90;;;;;;;17.13;58.05;102585.19;4971726;28;20426;-69
2023/09/30 09:15:25;;;;;;;87.38;81.97;;;;;;;17.14;57.96;102592.34;4972350;28;20038;-66
2023/09/30 09:17:51;;;;;;;86.43;80.95;;;;;;;17.15;58.49;102602.19;4971436;28;20534;-66
2023/09/30 09:20:24;;;;;;;83.35;78.28;;;;;;;17.15;58.45;102605.72;4972257;28;20034;-68
2023/09/30 09:22:53;;;;;;;86.05;80.63;;;;;;;17.17;58.34;102611.78;4971811;28;20035;-68
2023/09/30 09:25:19;;;;;;;88.15;81.57;;;;;;;17.19;58.62;102608.81;4972188;28;20039;-67
2023/09/30 09:27:45;;;;;;;85.60;80.35;;;;;;;17.21;58.23;102606.66;4971752;28;20058;-67
2023/09/30 09:30:18;;;;;;;89.45;83.20;;;;;;;17.22;58.51;102606.44;4972259;28;20117;-67
2023/09/30 09:33:13;;;;;;;91.65;84.68;;;;;;;17.25;58.65;102624.22;4972807;28;20404;-70
2023/09/30 09:35:38;;;;;;;87.70;81.57;;;;;;;17.27;58.17;102620.19;4963305;28;20090;-70
2023/09/30 09:38:06;;;;;;;86.28;81.18;;;;;;;17.29;58.32;102620.78;4956488;28;20508;-67
2023/09/30 09:40:36;;;;;;;89.47;82.93;;;;;;;17.32;58.79;102624.09;4957077;28;20051;-67
2023/09/30 09:43:06;;;;;;;90.07;83.72;;;;;;;17.34;58.66;102631.00;4956562;28;20031;-67
2023/09/30 09:45:37;;;;;;;95.20;87.45;;;;;;;17.36;58.81;102626.13;4956860;28;20031;-67
2023/09/30 09:48:04;;;;;;;91.32;84.20;;;;;;;17.36;58.53;102626.13;4956247;28;20415;-67
2023/09/30 09:50:31;;;;;;;84.60;79.30;;;;;;;17.37;58.64;102621.47;4957252;28;20029;-66
2023/09/30 09:53:00;;;;;;;92.50;85.70;;;;;;;17.38;58.62;102620.41;4956223;28;20031;-66
2023/09/30 09:55:27;;;;;;;95.57;88.72;;;;;;;17.41;58.74;102626.22;4955430;28;20166;-66
2023/09/30 09:57:53;;;;;;;94.50;87.65;;;;;;;17.42;59.05;102627.88;4956011;28;20093;-67
2023/09/30 10:00:20;;;;;;;88.20;82.55;;;;;;;17.45;59.19;102630.09;4956488;28;20364;-67
2023/09/30 10:02:46;;;;;;;94.03;87.50;;;;;;;17.47;58.85;102635.34;4955354;28;20041;-68
2023/09/30 10:05:13;;;;;;;91.65;85.18;;;;;;;17.47;59.00;102630.69;4956326;28;20048;-67
2023/09/30 10:07:56;;;;;;;87.43;82.18;;;;;;;17.48;59.29;102632.34;4955865;28;20046;-68
2023/09/30 10:10:23;;;;;;;93.53;86.70;;;;;;;17.48;59.70;102635.06;4956949;28;20027;-69
2023/09/30 10:12:49;;;;;;;93.78;86.65;;;;;;;17.51;59.43;102637.34;4974260;28;20042;-69
2023/09/30 10:15:23;;;;;;;92.63;85.95;;;;;;;17.52;59.84;102630.78;4975434;28;20514;-67
2023/09/30 10:18:04;;;;;;;89.85;83.78;;;;;;;17.55;59.17;102632.22;4973791;28;20034;-67
2023/09/30 10:20:31;;;;;;;93.15;86.60;;;;;;;17.57;59.77;102624.59;4975270;28;20027;-67
2023/09/30 10:23:25;;;;;;;96.65;89.55;;;;;;;17.60;59.76;102615.91;4974598;28;20047;-67
2023/09/30 10:26:11;;;;;;;93.68;87.18;;;;;;;17.63;60.09;102607.22;4973673;28;20077;-70
2023/09/30 10:28:41;;;;;;;88.13;82.47;;;;;;;17.65;59.69;102601.53;4974449;28;20035;-66
2023/09/30 10:31:18;;;;;;;91.25;85.50;;;;;;;17.67;59.91;102597.47;4974683;28;20176;-66
2023/09/30 10:34:20;;;;;;;89.40;83.07;;;;;;;17.69;59.93;102591.78;4974678;28;20382;-66
2023/09/30 10:36:46;;;;;;;90.60;84.40;;;;;;;17.72;60.08;102585.81;4956802;28;20346;-67
2023/09/30 10:39:13;;;;;;;94.65;88.90;;;;;;;17.73;59.92;102580.06;4955153;28;20448;-68
2023/09/30 10:41:39;;;;;;;94.13;87.63;;;;;;;17.78;60.00;102581.25;4956010;28;20039;-67
2023/09/30 10:44:29;;;;;;;91.78;86.60;;;;;;;17.80;60.51;102588.16;4955071;28;20041;-65
2023/09/30 10:47:17;;;;;;;88.55;83.07;;;;;;;17.84;60.47;102583.03;4950430;28;20054;-65
2023/09/30 10:49:43;;;;;;;89.78;85.43;;;;;;;17.85;60.66;102581.97;4955591;28;20065;-66
2023/09/30 10:52:09;;;;;;;93.60;88.40;;;;;;;17.87;60.85;102571.63;4955386;28;20058;-69
2023/09/30 10:54:34;;;;;;;94.95;89.53;;;;;;;17.90;60.45;102566.47;4955734;28;20035;-68
2023/09/30 10:57:00;;;;;;;96.60;88.57;;;;;;;17.93;60.95;102567.88;4955512;28;20032;-68
2023/09/30 10:59:31;;;;;;;94.82;88.38;;;;;;;17.95;60.78;102563.81;4955424;28;20451;-67
2023/09/30 11:01:57;;;;;;;89.43;84.50;;;;;;;17.98;60.99;102570.69;4954712;28;20046;-69
2023/09/30 11:04:23;;;;;;;92.25;87.57;;;;;;;18.00;60.90;102565.81;4955539;28;20039;-67
2023/09/30 11:06:50;;;;;;;92.20;87.10;;;;;;;18.02;60.62;102557.38;4954045;28;20376;-68
2023/09/30 11:09:17;;;;;;;92.97;87.78;;;;;;;18.05;60.60;102565.91;4954971;28;20035;-67